Terminal Aerodrome Forecast
Issued by NWS

Home | Current Version | Previous Version | Text Only | Print | Product List | Glossary Off
Versions: 1 2 3 4 5 6 7 8 9 10 11 12 13 14 15 16

475
FTUS43 KTOP 250435 AAB
TAFFOE
TAF AMD
KFOE 250435Z 2505/2524 05006KT P6SM VCTS SCT070CB BKN150
     FM251000 05006KT P6SM BKN150
     FM251400 07008KT P6SM SCT250=

USA.gov is the U.S. government's official web portal to all federal, state and local government web resources and services.